createdAt,value
2023-02-12T00:01:27.518Z,20.52
2023-02-12T00:03:54.539Z,20.85
2023-02-12T00:06:23.095Z,21.80
2023-02-12T00:07:20.621Z,0
2023-02-12T00:08:51.910Z,24.10
2023-02-12T00:11:21.318Z,23.20
2023-02-12T00:13:48.347Z,22.75
2023-02-12T00:16:18.477Z,24.63
2023-02-12T00:18:46.201Z,21.27
2023-02-12T00:21:13.848Z,23.35
2023-02-12T00:23:41.231Z,22.38
2023-02-12T00:26:15.043Z,21.73
2023-02-12T00:28:41.874Z,26.70
2023-02-12T00:31:11.124Z,24.87
2023-02-12T00:33:38.058Z,23.75
2023-02-12T00:36:05.822Z,21.80
2023-02-12T00:38:32.588Z,24.50
2023-02-12T00:40:59.381Z,22.63
2023-02-12T00:43:26.145Z,26.85
2023-02-12T00:45:53.147Z,23.20
2023-02-12T00:48:20.077Z,23.65
2023-02-12T00:50:48.460Z,27.17
2023-02-12T00:53:15.402Z,25.60
2023-02-12T00:55:42.173Z,24.35
2023-02-12T00:58:09.107Z,26.95
2023-02-12T01:00:36.105Z,25.17
2023-02-12T01:03:02.877Z,24.58
2023-02-12T01:08:16.982Z,24.65
2023-02-12T01:13:32.168Z,27.87
2023-02-12T01:16:15.348Z,25.42
2023-02-12T01:18:42.234Z,25.85
2023-02-12T01:23:44.169Z,26.27
2023-02-12T01:26:11.942Z,25.73
2023-02-12T01:28:43.342Z,22.75
2023-02-12T01:31:17.120Z,28.13
2023-02-12T01:33:44.170Z,23.40
2023-02-12T01:36:11.520Z,26.67
2023-02-12T01:38:38.402Z,25.88
2023-02-12T01:41:27.303Z,21.80
2023-02-12T01:44:20.353Z,28.77
2023-02-12T01:46:49.817Z,27.00
2023-02-12T01:49:23.815Z,24.63
2023-02-12T01:52:13.446Z,30.65
2023-02-12T01:54:41.774Z,26.73
2023-02-12T01:59:59.453Z,30.63
2023-02-12T02:05:18.128Z,27.90
2023-02-12T02:10:32.568Z,32.35
2023-02-12T02:15:49.223Z,29.75
2023-02-12T02:18:30.317Z,27.95
2023-02-12T02:21:06.232Z,30.13
2023-02-12T02:23:57.520Z,32.90
2023-02-12T02:26:36.187Z,29.58
2023-02-12T02:29:17.921Z,32.25
2023-02-12T02:32:02.963Z,31.80
2023-02-12T02:34:35.091Z,36.83
2023-02-12T02:37:32.636Z,34.10
2023-02-12T02:40:19.353Z,34.88
2023-02-12T02:42:59.660Z,34.67
2023-02-12T02:45:43.539Z,36.33
2023-02-12T02:48:22.371Z,35.13
2023-02-12T02:53:30.000Z,49.95
2023-02-12T02:56:02.087Z,49.40
2023-02-12T02:58:57.865Z,43.67
2023-02-12T03:01:43.031Z,39.83
2023-02-12T03:04:19.219Z,45.75
2023-02-12T03:06:52.212Z,39.42
2023-02-12T03:09:41.883Z,36.60
2023-02-12T03:12:16.663Z,42.55
2023-02-12T03:14:55.099Z,41.60
2023-02-12T03:17:34.266Z,44.08
2023-02-12T03:20:30.713Z,43.08
2023-02-12T03:23:12.357Z,39.57
2023-02-12T03:28:36.697Z,34.83
2023-02-12T03:31:29.839Z,40.50
2023-02-12T03:37:08.392Z,39.60
2023-02-12T03:40:05.761Z,36.25
2023-02-12T03:42:47.544Z,32.28
2023-02-12T03:45:36.719Z,36.55
2023-02-12T03:48:24.525Z,34.22
2023-02-12T03:50:57.635Z,32.08
2023-02-12T03:53:29.718Z,33.42
2023-02-12T03:56:31.584Z,29.75
2023-02-12T03:58:58.567Z,23.80
2023-02-12T04:01:26.211Z,21.88
2023-02-12T04:03:53.064Z,21.60
2023-02-12T04:06:22.541Z,22.05
2023-02-12T04:08:49.824Z,17.90
2023-02-12T04:11:30.833Z,40.55
2023-02-12T04:14:06.194Z,40.83
2023-02-12T04:16:56.577Z,19.85
2023-02-12T04:22:19.299Z,18.38
2023-02-12T04:27:47.970Z,15.13
2023-02-12T04:30:20.496Z,17.85
2023-02-12T04:32:53.929Z,17.98
2023-02-12T04:35:38.176Z,13.90
2023-02-12T04:38:21.696Z,12.40
2023-02-12T04:40:50.200Z,12.50
2023-02-12T04:43:30.348Z,13.13
2023-02-12T04:45:57.583Z,11.73
2023-02-12T04:48:24.560Z,11.95
2023-02-12T04:50:51.346Z,11.70
2023-02-12T04:53:18.122Z,11.52
2023-02-12T04:55:44.905Z,9.13
2023-02-12T04:58:11.805Z,9.38
2023-02-12T05:00:38.699Z,11.05
2023-02-12T05:03:05.860Z,10.32
2023-02-12T05:05:33.993Z,9.93
2023-02-12T05:08:00.939Z,9.98
2023-02-12T05:10:27.766Z,9.90
2023-02-12T05:12:55.869Z,10.07
2023-02-12T05:15:22.860Z,10.50
2023-02-12T05:17:49.653Z,8.48
2023-02-12T05:20:16.649Z,9.80
2023-02-12T05:22:43.424Z,10.07
2023-02-12T05:25:10.190Z,9.60
2023-02-12T05:27:36.930Z,8.85
2023-02-12T05:30:04.447Z,10.45
2023-02-12T05:35:17.996Z,9.15
2023-02-12T05:40:31.461Z,9.50
2023-02-12T05:45:44.870Z,9.02
2023-02-12T05:48:11.664Z,8.80
2023-02-12T05:50:38.414Z,10.68
2023-02-12T05:53:05.163Z,9.18
2023-02-12T05:55:31.979Z,9.30
2023-02-12T05:57:58.716Z,8.60
2023-02-12T06:00:25.598Z,8.77
2023-02-12T06:02:52.359Z,9.77
2023-02-12T06:05:19.106Z,10.48
2023-02-12T06:07:45.869Z,8.07
2023-02-12T06:10:12.605Z,8.75
2023-02-12T06:12:39.374Z,10.55
2023-02-12T06:15:06.360Z,10.30
2023-02-12T06:17:34.758Z,10.43
2023-02-12T06:20:01.602Z,9.93
2023-02-12T06:22:28.820Z,10.65
2023-02-12T06:24:55.561Z,12.13
2023-02-12T06:30:09.520Z,15.20
2023-02-12T06:35:23.102Z,13.00
2023-02-12T06:40:36.501Z,12.68
2023-02-12T06:45:49.945Z,13.57
2023-02-12T06:48:16.728Z,13.13
2023-02-12T06:50:43.498Z,12.48
2023-02-12T06:53:10.229Z,11.98
2023-02-12T06:55:37.116Z,10.65
2023-02-12T06:58:04.165Z,12.60
2023-02-12T07:00:30.993Z,13.15
2023-02-12T07:02:57.839Z,13.35
2023-02-12T07:05:25.162Z,11.88
2023-02-12T07:07:52.110Z,11.02
2023-02-12T07:10:19.434Z,11.88
2023-02-12T07:12:46.527Z,12.60
2023-02-12T07:15:15.024Z,12.13
2023-02-12T07:17:41.796Z,9.90
2023-02-12T07:20:09.016Z,8.32
2023-02-12T07:22:38.967Z,11.68
2023-02-12T07:25:06.086Z,11.70
2023-02-12T07:27:35.942Z,14.38
2023-02-12T07:30:03.249Z,14.73
2023-02-12T07:32:32.568Z,16.83
2023-02-12T07:34:59.326Z,12.13
2023-02-12T07:37:26.163Z,12.85
2023-02-12T07:39:52.922Z,12.80
2023-02-12T07:42:19.676Z,11.00
2023-02-12T07:44:46.404Z,10.30
2023-02-12T07:47:13.176Z,11.35
2023-02-12T07:49:39.917Z,13.55
2023-02-12T07:52:06.675Z,12.00
2023-02-12T07:54:33.616Z,10.55
2023-02-12T07:57:00.372Z,10.68
2023-02-12T07:59:27.185Z,10.10
2023-02-12T08:01:54.395Z,8.55
2023-02-12T08:04:23.241Z,9.05
2023-02-12T08:06:53.165Z,10.18
2023-02-12T08:09:25.528Z,9.05
2023-02-12T08:14:39.509Z,10.00
2023-02-12T08:19:28.241Z,0
2023-02-12T08:22:19.588Z,7.30
2023-02-12T08:27:34.238Z,11.13
2023-02-12T08:32:49.762Z,12.05
2023-02-12T08:35:16.843Z,9.70
2023-02-12T08:37:43.634Z,12.30
2023-02-12T08:40:11.138Z,11.52
2023-02-12T08:42:37.874Z,10.40
2023-02-12T08:45:04.902Z,10.77
2023-02-12T08:47:31.693Z,12.35
2023-02-12T08:49:58.425Z,15.68
2023-02-12T08:52:25.225Z,14.90
2023-02-12T08:54:52.059Z,12.68
2023-02-12T08:57:18.807Z,11.98
2023-02-12T08:59:45.626Z,14.90
2023-02-12T09:02:12.414Z,15.95
2023-02-12T09:04:39.226Z,16.27
2023-02-12T09:07:06.930Z,16.10
2023-02-12T09:09:34.555Z,13.10
2023-02-12T09:12:01.366Z,12.60
2023-02-12T09:14:28.129Z,14.68
2023-02-12T09:16:55.112Z,19.55
2023-02-12T09:19:22.376Z,14.13
2023-02-12T09:21:55.503Z,13.73
2023-02-12T09:24:23.312Z,16.05
2023-02-12T09:26:50.083Z,14.80
2023-02-12T09:29:16.873Z,13.75
2023-02-12T09:31:43.740Z,11.65
2023-02-12T09:34:10.709Z,12.03
2023-02-12T09:36:37.642Z,14.15
2023-02-12T09:39:04.601Z,15.50
2023-02-12T09:44:40.988Z,12.48
2023-02-12T09:47:31.129Z,10.48
2023-02-12T09:50:21.223Z,10.75
2023-02-12T09:52:49.385Z,15.90
2023-02-12T09:55:18.256Z,14.60
2023-02-12T09:57:46.100Z,16.10
2023-02-12T10:00:25.128Z,19.33
2023-02-12T10:05:48.113Z,11.90
2023-02-12T10:08:42.542Z,11.65
2023-02-12T10:11:47.179Z,9.93
2023-02-12T10:14:35.437Z,11.10
2023-02-12T10:17:23.366Z,12.75
2023-02-12T10:19:52.945Z,12.27
2023-02-12T10:22:37.480Z,11.10
2023-02-12T10:25:27.049Z,10.13
2023-02-12T10:27:56.815Z,10.27
2023-02-12T10:30:26.409Z,11.57
2023-02-12T10:32:59.170Z,11.63
2023-02-12T10:35:26.552Z,13.18
2023-02-12T10:38:15.964Z,12.07
2023-02-12T10:40:45.033Z,9.77
2023-02-12T10:46:00.302Z,9.52
2023-02-12T10:48:38.228Z,14.40
2023-02-12T10:51:08.026Z,11.38
2023-02-12T10:53:43.616Z,11.70
2023-02-12T10:56:20.853Z,10.80
2023-02-12T10:58:50.383Z,14.82
2023-02-12T11:01:28.436Z,12.57
2023-02-12T11:03:57.352Z,12.48
2023-02-12T11:09:29.492Z,12.40
2023-02-12T11:11:56.693Z,12.30
2023-02-12T11:14:24.409Z,12.77
2023-02-12T11:16:52.606Z,13.80
2023-02-12T11:19:31.502Z,12.00
2023-02-12T11:22:15.256Z,11.55
2023-02-12T11:24:42.084Z,11.32
2023-02-12T11:27:21.475Z,11.52
2023-02-12T11:30:10.693Z,13.07
2023-02-12T11:32:37.848Z,16.50
2023-02-12T11:38:00.271Z,14.17
2023-02-12T11:43:19.118Z,11.95
2023-02-12T11:45:49.142Z,12.00
2023-02-12T11:48:36.672Z,11.95
2023-02-12T11:51:10.427Z,9.80
2023-02-12T11:53:41.566Z,9.95
2023-02-12T11:59:33.105Z,10.70
2023-02-12T12:02:10.290Z,10.82
2023-02-12T12:07:34.584Z,11.03
2023-02-12T12:10:40.188Z,11.25
2023-02-12T12:13:16.238Z,12.27
2023-02-12T12:15:47.839Z,13.00
2023-02-12T12:18:17.675Z,10.55
2023-02-12T12:20:50.625Z,8.98
2023-02-12T12:23:30.522Z,9.65
2023-02-12T12:26:10.562Z,9.10
2023-02-12T12:28:53.717Z,10.47
2023-02-12T12:31:33.244Z,10.70
2023-02-12T12:37:43.707Z,10.27
2023-02-12T12:40:31.753Z,7.80
2023-02-12T12:43:21.624Z,9.15
2023-02-12T12:46:10.164Z,11.27
2023-02-12T12:48:51.981Z,10.90
2023-02-12T12:51:24.976Z,10.48
2023-02-12T12:54:05.373Z,24.60
2023-02-12T12:56:52.353Z,14.18
2023-02-12T13:03:09.219Z,11.10
2023-02-12T13:05:58.048Z,7.70
2023-02-12T13:08:28.072Z,8.73
2023-02-12T13:11:02.751Z,9.05
2023-02-12T13:13:36.087Z,8.20
2023-02-12T13:16:21.376Z,8.83
2023-02-12T13:19:01.711Z,8.90
2023-02-12T13:21:40.820Z,8.93
2023-02-12T13:24:21.741Z,6.15
2023-02-12T13:26:58.487Z,6.80
2023-02-12T13:29:30.788Z,7.72
2023-02-12T13:31:37.292Z,0
2023-02-12T13:32:18.274Z,5.38
2023-02-12T13:34:45.235Z,5.90
2023-02-12T13:37:18.774Z,7.80
2023-02-12T13:39:48.051Z,6.83
2023-02-12T13:42:24.532Z,6.57
2023-02-12T13:45:04.267Z,7.78
2023-02-12T13:47:36.902Z,10.10
2023-02-12T13:50:34.577Z,9.82
2023-02-12T13:53:19.289Z,9.20
2023-02-12T13:56:10.664Z,8.50
2023-02-12T13:58:37.393Z,7.60
2023-02-12T14:04:21.277Z,7.28
2023-02-12T14:07:03.242Z,7.45
2023-02-12T14:09:38.092Z,8.27
2023-02-12T14:12:12.066Z,7.65
2023-02-12T14:14:42.814Z,6.20
2023-02-12T14:17:28.348Z,9.57
2023-02-12T14:20:30.345Z,7.90
2023-02-12T14:26:23.682Z,8.95
2023-02-12T14:28:53.216Z,7.15
2023-02-12T14:31:20.089Z,10.07
2023-02-12T14:33:52.299Z,8.17
2023-02-12T14:36:37.389Z,5.80
2023-02-12T14:41:52.653Z,6.93
2023-02-12T14:47:29.810Z,10.68
2023-02-12T14:50:01.878Z,10.50
2023-02-12T14:52:33.304Z,7.00
2023-02-12T14:55:19.724Z,8.45
2023-02-12T14:57:46.940Z,9.65
2023-02-12T15:03:19.995Z,9.43
2023-02-12T15:06:08.437Z,9.77
2023-02-12T15:08:41.190Z,12.20
2023-02-12T15:11:23.153Z,13.55
2023-02-12T15:17:06.387Z,15.82
2023-02-12T15:20:00.839Z,16.55
2023-02-12T15:25:31.178Z,21.67
2023-02-12T15:30:47.496Z,18.50
2023-02-12T15:33:26.628Z,19.90
2023-02-12T15:35:53.604Z,21.33
2023-02-12T15:41:38.227Z,20.33
2023-02-12T15:44:21.502Z,19.88
2023-02-12T15:49:59.849Z,21.20
2023-02-12T15:52:40.132Z,17.55
2023-02-12T15:55:14.195Z,15.88
2023-02-12T16:00:40.751Z,15.18
2023-02-12T16:03:24.177Z,15.73
2023-02-12T16:05:52.348Z,16.50
2023-02-12T16:08:21.446Z,14.47
2023-02-12T16:10:50.753Z,18.50
2023-02-12T16:13:39.584Z,20.30
2023-02-12T16:16:12.511Z,14.27
2023-02-12T16:18:41.509Z,16.15
2023-02-12T16:21:13.602Z,16.92
2023-02-12T16:23:44.134Z,15.63
2023-02-12T16:26:18.570Z,15.57
2023-02-12T16:28:50.577Z,16.80
2023-02-12T16:31:18.688Z,16.52
2023-02-12T16:33:48.558Z,17.48
2023-02-12T16:36:15.358Z,18.30
2023-02-12T16:38:46.600Z,18.63
2023-02-12T16:41:19.117Z,18.45
2023-02-12T16:43:47.354Z,24.02
2023-02-12T16:49:03.718Z,20.88
2023-02-12T16:51:35.752Z,22.70
2023-02-12T16:54:05.154Z,23.02
2023-02-12T16:56:36.723Z,22.27
2023-02-12T16:59:03.496Z,25.08
2023-02-12T17:01:33.942Z,26.43
2023-02-12T17:04:04.159Z,27.77
2023-02-12T17:06:32.920Z,25.35
2023-02-12T17:08:59.976Z,24.47
2023-02-12T17:11:27.942Z,26.90
2023-02-12T17:13:55.612Z,27.55
2023-02-12T17:16:31.745Z,35.13
2023-02-12T17:21:47.519Z,26.48
2023-02-12T17:24:24.627Z,28.65
2023-02-12T17:26:51.635Z,26.80
2023-02-12T17:29:19.698Z,29.25
2023-02-12T17:31:47.228Z,26.13
2023-02-12T17:34:15.376Z,23.33
2023-02-12T17:36:42.811Z,25.60
2023-02-12T17:41:58.812Z,25.85
2023-02-12T17:47:12.809Z,29.75
2023-02-12T17:52:26.466Z,27.17
2023-02-12T17:54:53.249Z,25.33
2023-02-12T17:57:19.976Z,28.85
2023-02-12T17:59:46.725Z,27.13
2023-02-12T18:02:13.501Z,25.20
2023-02-12T18:04:40.366Z,30.10
2023-02-12T18:07:07.164Z,25.03
2023-02-12T18:09:33.995Z,24.67
2023-02-12T18:12:00.720Z,25.58
2023-02-12T18:14:27.532Z,26.30
2023-02-12T18:16:54.391Z,21.08
2023-02-12T18:19:21.162Z,16.73
2023-02-12T18:21:47.898Z,17.77
2023-02-12T18:24:14.933Z,16.02
2023-02-12T18:26:41.809Z,16.20
2023-02-12T18:29:08.606Z,16.65
2023-02-12T18:31:35.512Z,15.38
2023-02-12T18:34:04.010Z,14.43
2023-02-12T18:36:30.768Z,13.97
2023-02-12T18:38:57.549Z,16.50
2023-02-12T18:44:14.384Z,14.38
2023-02-12T18:49:28.742Z,32.92
2023-02-12T18:54:42.285Z,16.08
2023-02-12T18:59:55.716Z,14.25
2023-02-12T19:02:22.886Z,14.67
2023-02-12T19:04:49.775Z,15.63
2023-02-12T19:07:16.586Z,14.25
2023-02-12T19:09:43.554Z,16.02
2023-02-12T19:12:10.308Z,16.50
2023-02-12T19:14:37.050Z,14.20
2023-02-12T19:17:03.816Z,12.88
2023-02-12T19:19:30.565Z,13.43
2023-02-12T19:21:57.339Z,14.15
2023-02-12T19:24:24.208Z,13.63
2023-02-12T19:26:52.826Z,13.30
2023-02-12T19:29:19.553Z,12.85
2023-02-12T19:31:46.723Z,13.68
2023-02-12T19:34:17.483Z,13.27
2023-02-12T19:36:44.537Z,14.90
2023-02-12T19:39:14.777Z,14.00
2023-02-12T19:41:42.283Z,15.27
2023-02-12T19:44:19.265Z,18.33
2023-02-12T19:46:46.861Z,15.50
2023-02-12T19:49:19.356Z,14.82
2023-02-12T19:51:46.710Z,15.23
2023-02-12T19:54:15.207Z,15.52
2023-02-12T19:56:42.384Z,15.23
2023-02-12T19:59:11.305Z,18.20
2023-02-12T20:01:38.159Z,20.25
2023-02-12T20:06:52.462Z,19.55
2023-02-12T20:12:07.526Z,19.33
2023-02-12T20:17:20.994Z,18.88
2023-02-12T20:19:47.766Z,20.10
2023-02-12T20:22:14.509Z,19.10
2023-02-12T20:24:41.350Z,20.55
2023-02-12T20:27:08.093Z,19.95
2023-02-12T20:29:34.858Z,19.95
2023-02-12T20:32:01.720Z,18.40
2023-02-12T20:34:28.489Z,18.60
2023-02-12T20:34:53.703Z,0
2023-02-12T20:36:55.291Z,20.88
2023-02-12T20:39:22.135Z,20.92
2023-02-12T20:41:49.473Z,18.70
2023-02-12T20:44:19.783Z,20.33
2023-02-12T20:46:50.041Z,18.85
2023-02-12T20:49:19.427Z,21.40
2023-02-12T20:54:37.028Z,19.88
2023-02-12T20:57:03.940Z,27.15
2023-02-12T20:59:30.692Z,20.23
2023-02-12T21:01:57.482Z,19.20
2023-02-12T21:04:24.256Z,20.90
2023-02-12T21:04:34.751Z,0
2023-02-12T21:06:51.012Z,21.40
2023-02-12T21:09:17.845Z,20.60
2023-02-12T21:11:44.861Z,19.95
2023-02-12T21:14:26.143Z,0
2023-02-12T21:14:28.037Z,19.27
2023-02-12T21:16:55.771Z,20.88
2023-02-12T21:19:22.832Z,20.58
2023-02-12T21:21:49.684Z,20.08
2023-02-12T21:24:18.936Z,19.13
2023-02-12T21:26:45.755Z,20.30
2023-02-12T21:29:12.730Z,19.88
2023-02-12T21:31:42.041Z,19.50
2023-02-12T21:34:12.424Z,18.90
2023-02-12T21:36:41.554Z,20.67
2023-02-12T21:39:12.262Z,21.58
2023-02-12T21:41:40.879Z,21.88
2023-02-12T21:46:58.653Z,19.75
2023-02-12T21:52:12.078Z,21.88
2023-02-12T21:54:38.831Z,20.70
2023-02-12T21:57:05.552Z,21.70
2023-02-12T21:59:32.691Z,20.27
2023-02-12T22:01:59.582Z,22.70
2023-02-12T22:04:27.337Z,26.58
2023-02-12T22:06:54.199Z,21.03
2023-02-12T22:09:22.417Z,17.73
2023-02-12T22:11:49.376Z,19.60
2023-02-12T22:14:17.558Z,21.38
2023-02-12T22:16:45.263Z,21.35
2023-02-12T22:19:12.154Z,22.33
2023-02-12T22:21:40.702Z,22.02
2023-02-12T22:24:09.287Z,22.50
2023-02-12T22:26:36.474Z,22.35
2023-02-12T22:29:06.487Z,24.85
2023-02-12T22:31:36.023Z,23.02
2023-02-12T22:34:06.139Z,20.70
2023-02-12T22:36:35.589Z,21.08
2023-02-12T22:39:02.685Z,20.80
2023-02-12T22:41:29.649Z,20.38
2023-02-12T22:43:59.469Z,22.80
2023-02-12T22:46:26.512Z,23.05
2023-02-12T22:48:53.357Z,23.15
2023-02-12T22:51:24.405Z,22.70
2023-02-12T22:53:51.624Z,23.08
2023-02-12T22:56:19.251Z,23.45
2023-02-12T22:58:46.538Z,21.02
2023-02-12T23:01:16.562Z,22.13
2023-02-12T23:03:44.084Z,20.35
2023-02-12T23:06:16.685Z,23.00
2023-02-12T23:11:32.450Z,21.30
2023-02-12T23:16:46.377Z,23.58
2023-02-12T23:19:13.523Z,20.98
2023-02-12T23:21:40.716Z,22.52
2023-02-12T23:24:07.747Z,22.10
2023-02-12T23:26:34.525Z,21.40
2023-02-12T23:29:01.265Z,21.73
2023-02-12T23:31:28.161Z,21.67
2023-02-12T23:33:54.989Z,22.63
2023-02-12T23:36:21.954Z,25.30
2023-02-12T23:38:48.770Z,22.90
2023-02-12T23:41:15.540Z,21.90
2023-02-12T23:43:42.335Z,24.35
2023-02-12T23:46:09.184Z,24.90
2023-02-12T23:48:36.079Z,25.92
2023-02-12T23:51:02.960Z,23.85
2023-02-12T23:53:29.729Z,20.60
2023-02-12T23:55:56.572Z,20.13
2023-02-12T23:58:23.358Z,23.58
